createdAt,value
2023-10-28T00:04:40.354Z,0.40
2023-10-28T00:09:41.744Z,0.40
2023-10-28T00:14:43.028Z,0.50
2023-10-28T00:19:44.562Z,0.30
2023-10-28T00:24:46.289Z,0.30
2023-10-28T00:29:53.114Z,0.50
2023-10-28T00:34:54.667Z,0.40
2023-10-28T00:39:57.132Z,0.40
2023-10-28T00:44:58.428Z,0.30
2023-10-28T00:49:59.764Z,0.40
2023-10-28T00:55:01.113Z,0.60
2023-10-28T01:00:02.533Z,0.40
2023-10-28T01:05:04.314Z,0.70
2023-10-28T01:10:06.759Z,0.60
2023-10-28T01:15:08.573Z,0.40
2023-10-28T01:20:11.598Z,0.60
2023-10-28T01:25:13.049Z,0.60
2023-10-28T01:30:14.757Z,0.60
2023-10-28T01:35:16.815Z,0.73
2023-10-28T01:40:18.738Z,0.63
2023-10-28T01:45:22.337Z,0.80
2023-10-28T01:50:23.743Z,0.60
2023-10-28T01:55:25.106Z,0.70
2023-10-28T02:00:31.610Z,0.90
2023-10-28T02:05:33.435Z,0.70
2023-10-28T02:10:35.065Z,0.80
2023-10-28T02:15:36.404Z,1.33
2023-10-28T02:20:38.210Z,0.90
2023-10-28T02:25:39.686Z,0.80
2023-10-28T02:30:41.437Z,0.80
2023-10-28T02:35:42.731Z,1.98
2023-10-28T02:40:47.651Z,1.00
2023-10-28T02:45:49.410Z,1.10
2023-10-28T02:50:50.743Z,0.97
2023-10-28T02:55:52.120Z,0.90
2023-10-28T03:00:56.224Z,1.13
2023-10-28T03:05:57.545Z,0.90
2023-10-28T03:10:58.938Z,1.00
2023-10-28T03:16:00.434Z,1.07
2023-10-28T03:21:01.761Z,1.02
2023-10-28T03:26:06.138Z,1.00
2023-10-28T03:31:11.220Z,1.07
2023-10-28T03:36:12.758Z,1.02
2023-10-28T03:41:14.142Z,1.13
2023-10-28T03:46:17.045Z,0.90
2023-10-28T03:51:18.395Z,1.10
2023-10-28T03:56:19.714Z,0.70
2023-10-28T04:01:21.058Z,1.02
2023-10-28T04:06:22.675Z,1.53
2023-10-28T04:11:23.983Z,0.95
2023-10-28T04:16:26.887Z,0.98
2023-10-28T04:21:28.754Z,0.93
2023-10-28T04:26:30.053Z,0.95
2023-10-28T04:31:31.482Z,0.90
2023-10-28T04:36:32.794Z,0.90
2023-10-28T04:41:34.753Z,1.15
2023-10-28T04:46:36.042Z,0.93
2023-10-28T04:51:37.441Z,1.02
2023-10-28T04:56:38.751Z,0.73
2023-10-28T05:01:40.148Z,0.60
2023-10-28T05:06:41.538Z,0.82
2023-10-28T05:11:43.994Z,1.10
2023-10-28T05:16:45.425Z,1.00
2023-10-28T05:21:46.820Z,1.23
2023-10-28T05:26:48.353Z,0.90
2023-10-28T05:31:49.687Z,0.90
2023-10-28T05:36:51.730Z,1.10
2023-10-28T05:41:53.414Z,1.00
2023-10-28T05:46:56.712Z,1.10
2023-10-28T05:51:58.096Z,1.17
2023-10-28T05:56:59.422Z,3.08
2023-10-28T06:02:02.164Z,1.17
2023-10-28T06:07:03.656Z,1.10
2023-10-28T06:12:05.185Z,1.10
2023-10-28T06:17:06.567Z,1.20
2023-10-28T06:22:08.671Z,1.00
2023-10-28T06:27:09.980Z,1.50
2023-10-28T06:32:11.322Z,1.45
2023-10-28T06:37:12.694Z,1.40
2023-10-28T06:42:14.706Z,1.20
2023-10-28T06:47:16.107Z,1.17
2023-10-28T06:52:17.519Z,1.00
2023-10-28T06:57:18.805Z,1.30
2023-10-28T07:02:20.149Z,1.30
2023-10-28T07:07:21.491Z,1.00
2023-10-28T07:12:22.796Z,1.38
2023-10-28T07:17:24.185Z,1.60
2023-10-28T07:22:26.783Z,1.17
2023-10-28T07:27:28.420Z,1.20
2023-10-28T07:32:29.713Z,1.17
2023-10-28T07:37:33.302Z,1.00
2023-10-28T07:42:35.649Z,0.90
2023-10-28T07:47:37.506Z,0.90
2023-10-28T07:52:38.891Z,1.10
2023-10-28T07:57:40.175Z,1.40
2023-10-28T08:02:45.918Z,1.00
2023-10-28T08:07:48.171Z,1.20
2023-10-28T08:12:57.535Z,1.45
2023-10-28T08:17:58.866Z,1.35
2023-10-28T08:23:00.232Z,1.23
2023-10-28T08:28:02.435Z,1.05
2023-10-28T08:33:03.899Z,1.40
2023-10-28T08:38:08.294Z,1.70
2023-10-28T08:43:09.710Z,1.20
2023-10-28T08:48:11.891Z,2.53
2023-10-28T08:53:16.910Z,2.00
2023-10-28T08:58:19.996Z,1.20
2023-10-28T09:03:24.733Z,1.07
2023-10-28T09:08:26.170Z,2.85
2023-10-28T09:13:27.561Z,1.30
2023-10-28T09:18:37.154Z,1.77
2023-10-28T09:23:38.780Z,2.33
2023-10-28T09:28:43.669Z,1.20
2023-10-28T09:33:45.202Z,1.10
2023-10-28T09:38:47.484Z,1.08
2023-10-28T09:43:48.977Z,1.20
2023-10-28T09:48:50.867Z,1.65
2023-10-28T09:53:58.260Z,1.27
2023-10-28T09:59:03.485Z,1.30
2023-10-28T10:04:10.044Z,1.00
2023-10-28T10:09:14.129Z,1.37
2023-10-28T10:14:16.017Z,1.33
2023-10-28T10:19:28.381Z,1.70
2023-10-28T10:24:30.254Z,3.37
2023-10-28T10:29:41.706Z,2.00
2023-10-28T10:34:44.917Z,1.92
2023-10-28T10:39:49.132Z,1.20
2023-10-28T10:44:50.513Z,2.20
2023-10-28T10:49:52.804Z,2.15
2023-10-28T10:54:54.688Z,1.57
2023-10-28T10:59:56.039Z,1.37
2023-10-28T11:04:59.768Z,2.15
2023-10-28T11:10:01.120Z,1.80
2023-10-28T11:15:03.083Z,1.90
2023-10-28T11:20:05.973Z,2.00
2023-10-28T11:25:07.757Z,1.23
2023-10-28T11:30:09.293Z,1.67
2023-10-28T11:35:11.881Z,1.73
2023-10-28T11:40:13.226Z,1.40
2023-10-28T11:45:16.677Z,1.47
2023-10-28T11:50:17.996Z,1.30
2023-10-28T11:55:19.374Z,2.07
2023-10-28T12:00:20.735Z,2.90
2023-10-28T12:05:22.063Z,1.42
2023-10-28T12:10:23.479Z,1.73
2023-10-28T12:15:24.801Z,1.60
2023-10-28T12:20:26.109Z,2.20
2023-10-28T12:25:27.595Z,1.70
2023-10-28T12:30:29.014Z,1.60
2023-10-28T12:35:30.352Z,1.58
2023-10-28T12:40:33.242Z,5.37
2023-10-28T12:45:34.608Z,5.30
2023-10-28T12:50:35.932Z,4.30
2023-10-28T12:55:37.303Z,2.70
2023-10-28T13:00:39.495Z,3.67
2023-10-28T13:05:40.872Z,3.78
2023-10-28T13:10:42.255Z,2.77
2023-10-28T13:15:43.731Z,2.87
2023-10-28T13:20:45.084Z,3.10
2023-10-28T13:25:46.473Z,2.30
2023-10-28T13:30:47.830Z,2.13
2023-10-28T13:35:49.183Z,2.00
2023-10-28T13:40:50.545Z,2.70
2023-10-28T13:45:53.755Z,2.10
2023-10-28T13:50:55.149Z,2.08
2023-10-28T13:55:59.715Z,2.10
2023-10-28T14:01:05.441Z,2.00
2023-10-28T14:06:10.333Z,1.85
2023-10-28T14:11:11.785Z,1.93
2023-10-28T14:16:19.828Z,2.10
2023-10-28T14:21:23.711Z,2.90
2023-10-28T14:26:25.188Z,3.60
2023-10-28T14:31:26.963Z,2.00
2023-10-28T14:36:28.308Z,2.75
2023-10-28T14:41:34.897Z,3.40
2023-10-28T14:46:36.837Z,3.25
2023-10-28T14:51:38.477Z,3.25
2023-10-28T14:56:39.846Z,4.03
2023-10-28T15:01:41.224Z,4.30
2023-10-28T15:06:42.573Z,3.70
2023-10-28T15:11:44.487Z,7.28
2023-10-28T15:16:49.561Z,5.32
2023-10-28T15:21:51.171Z,5.63
2023-10-28T15:26:52.489Z,3.15
2023-10-28T15:31:54.200Z,3.38
2023-10-28T15:36:55.520Z,4.93
2023-10-28T15:41:56.936Z,4.50
2023-10-28T15:46:59.180Z,3.80
2023-10-28T15:52:00.501Z,4.38
2023-10-28T15:57:01.833Z,4.50
2023-10-28T16:02:03.316Z,4.50
2023-10-28T16:07:06.468Z,3.80
2023-10-28T16:12:08.423Z,3.92
2023-10-28T16:17:10.332Z,22.80
2023-10-28T16:22:11.970Z,5.57
2023-10-28T16:27:13.268Z,6.23
2023-10-28T16:32:14.652Z,7.40
2023-10-28T16:37:16.055Z,7.47
2023-10-28T16:42:17.450Z,4.53
2023-10-28T16:47:18.811Z,4.57
2023-10-28T16:52:20.146Z,4.47
2023-10-28T16:57:21.742Z,4.65
2023-10-28T17:02:23.337Z,4.55
2023-10-28T17:07:24.913Z,4.00
2023-10-28T17:12:26.305Z,4.20
2023-10-28T17:17:28.253Z,4.50
2023-10-28T17:22:29.587Z,3.83
2023-10-28T17:27:30.954Z,3.80
2023-10-28T17:32:32.533Z,4.47
2023-10-28T17:37:34.603Z,4.95
2023-10-28T17:42:36.053Z,5.28
2023-10-28T17:47:38.266Z,10.53
2023-10-28T17:52:39.570Z,5.30
2023-10-28T17:57:40.950Z,4.47
2023-10-28T18:02:42.397Z,3.05
2023-10-28T18:07:43.828Z,3.63
2023-10-28T18:12:45.178Z,3.87
2023-10-28T18:17:46.595Z,3.65
2023-10-28T18:22:47.968Z,4.30
2023-10-28T18:27:49.279Z,4.70
2023-10-28T18:32:50.764Z,4.03
2023-10-28T18:37:52.301Z,4.30
2023-10-28T18:42:54.472Z,2.90
2023-10-28T18:47:55.900Z,3.65
2023-10-28T18:52:57.210Z,6.13
2023-10-28T18:57:58.485Z,4.70
2023-10-28T19:02:59.874Z,5.30
2023-10-28T19:08:01.834Z,5.30
2023-10-28T19:13:03.537Z,5.07
2023-10-28T19:18:05.060Z,4.57
2023-10-28T19:23:06.490Z,4.15
2023-10-28T19:28:08.036Z,4.07
2023-10-28T19:33:09.860Z,4.30
2023-10-28T19:38:11.718Z,5.45
2023-10-28T19:43:13.047Z,3.58
2023-10-28T19:48:16.196Z,3.83
2023-10-28T19:53:18.239Z,3.50
2023-10-28T19:58:19.577Z,4.03
2023-10-28T20:03:23.769Z,3.30
2023-10-28T20:08:25.784Z,3.53
2023-10-28T20:13:27.937Z,3.20
2023-10-28T20:18:29.537Z,3.00
2023-10-28T20:23:31.268Z,4.03
2023-10-28T20:28:32.741Z,6.13
2023-10-28T20:33:34.268Z,11.00
2023-10-28T20:38:35.709Z,8.47
2023-10-28T20:43:37.020Z,5.90
2023-10-28T20:48:38.328Z,4.67
2023-10-28T20:53:39.727Z,2.90
2023-10-28T20:58:41.102Z,2.60
2023-10-28T21:03:42.562Z,2.50
2023-10-28T21:08:43.996Z,3.42
2023-10-28T21:13:46.557Z,3.77
2023-10-28T21:18:47.890Z,3.30
2023-10-28T21:23:49.242Z,2.50
2023-10-28T21:28:50.629Z,2.17
2023-10-28T21:33:57.420Z,1.90
2023-10-28T21:38:58.764Z,2.93
2023-10-28T21:44:00.061Z,2.00
2023-10-28T21:49:01.476Z,2.33
2023-10-28T21:54:04.212Z,2.60
2023-10-28T21:59:05.781Z,2.20
2023-10-28T22:04:07.177Z,2.60
2023-10-28T22:09:10.029Z,3.03
2023-10-28T22:14:11.344Z,3.13
2023-10-28T22:19:12.679Z,2.83
2023-10-28T22:24:13.962Z,2.75
2023-10-28T22:29:15.392Z,2.40
2023-10-28T22:34:16.714Z,3.00
2023-10-28T22:39:19.537Z,3.28
2023-10-28T22:44:21.018Z,3.23
2023-10-28T22:49:22.438Z,2.78
2023-10-28T22:54:23.792Z,2.85
2023-10-28T22:59:25.143Z,2.70
2023-10-28T23:04:26.634Z,2.78
2023-10-28T23:09:27.929Z,2.53
2023-10-28T23:14:29.312Z,3.50
2023-10-28T23:19:30.657Z,3.53
2023-10-28T23:24:32.586Z,2.17
2023-10-28T23:29:33.972Z,2.38
2023-10-28T23:34:35.671Z,2.00
2023-10-28T23:39:36.950Z,2.10
2023-10-28T23:44:38.416Z,2.47
2023-10-28T23:49:39.825Z,2.30
2023-10-28T23:54:41.737Z,2.50
2023-10-28T23:59:43.295Z,2.47
